sensor_id;sensor_type;location;lat;lon;timestamp;temperature;humidity
67555;HTU21D;54385;53.516;49.456;2023-04-03T00:00:58;4.24;65.85
67555;HTU21D;54385;53.516;49.456;2023-04-03T00:03:25;4.27;65.85
67555;HTU21D;54385;53.516;49.456;2023-04-03T00:05:52;4.37;65.59
67555;HTU21D;54385;53.516;49.456;2023-04-03T00:08:19;4.45;65.36
67555;HTU21D;54385;53.516;49.456;2023-04-03T00:10:46;4.54;64.90
67555;HTU21D;54385;53.516;49.456;2023-04-03T00:13:13;4.56;64.84
67555;HTU21D;54385;53.516;49.456;2023-04-03T00:15:41;4.56;65.06
67555;HTU21D;54385;53.516;49.456;2023-04-03T00:18:08;4.45;65.50
67555;HTU21D;54385;53.516;49.456;2023-04-03T00:20:35;4.36;65.41
67555;HTU21D;54385;53.516;49.456;2023-04-03T00:23:02;4.34;65.22
67555;HTU21D;54385;53.516;49.456;2023-04-03T00:25:29;4.27;65.30
67555;HTU21D;54385;53.516;49.456;2023-04-03T00:27:56;4.21;65.56
67555;HTU21D;54385;53.516;49.456;2023-04-03T00:30:22;4.16;65.59
67555;HTU21D;54385;53.516;49.456;2023-04-03T00:32:50;4.14;65.70
67555;HTU21D;54385;53.516;49.456;2023-04-03T00:35:19;4.00;66.05
67555;HTU21D;54385;53.516;49.456;2023-04-03T00:37:46;4.00;66.28
67555;HTU21D;54385;53.516;49.456;2023-04-03T00:40:15;3.93;66.19
67555;HTU21D;54385;53.516;49.456;2023-04-03T00:42:43;3.78;66.62
67555;HTU21D;54385;53.516;49.456;2023-04-03T00:47:39;3.74;66.92
67555;HTU21D;54385;53.516;49.456;2023-04-03T00:50:06;3.68;66.72
67555;HTU21D;54385;53.516;49.456;2023-04-03T00:52:33;3.55;66.89
67555;HTU21D;54385;53.516;49.456;2023-04-03T00:55:03;3.58;67.02
67555;HTU21D;54385;53.516;49.456;2023-04-03T00:57:31;3.67;66.71
67555;HTU21D;54385;53.516;49.456;2023-04-03T01:00:03;3.61;67.07
67555;HTU21D;54385;53.516;49.456;2023-04-03T01:02:31;3.59;66.87
67555;HTU21D;54385;53.516;49.456;2023-04-03T01:04:57;3.62;66.69
67555;HTU21D;54385;53.516;49.456;2023-04-03T01:07:29;3.69;66.50
67555;HTU21D;54385;53.516;49.456;2023-04-03T01:09:58;3.58;66.78
67555;HTU21D;54385;53.516;49.456;2023-04-03T01:12:29;3.48;67.28
67555;HTU21D;54385;53.516;49.456;2023-04-03T01:14:59;3.43;67.40
67555;HTU21D;54385;53.516;49.456;2023-04-03T01:25:40;3.46;67.00
67555;HTU21D;54385;53.516;49.456;2023-04-03T01:28:10;3.54;66.94
67555;HTU21D;54385;53.516;49.456;2023-04-03T01:30:53;3.57;66.94
67555;HTU21D;54385;53.516;49.456;2023-04-03T01:33:22;3.60;66.91
67555;HTU21D;54385;53.516;49.456;2023-04-03T01:35:49;3.59;67.01
67555;HTU21D;54385;53.516;49.456;2023-04-03T01:38:16;3.58;66.88
67555;HTU21D;54385;53.516;49.456;2023-04-03T01:40:43;3.56;66.36
67555;HTU21D;54385;53.516;49.456;2023-04-03T01:43:10;3.57;66.53
67555;HTU21D;54385;53.516;49.456;2023-04-03T01:45:37;3.57;66.69
67555;HTU21D;54385;53.516;49.456;2023-04-03T01:48:04;3.57;66.69
67555;HTU21D;54385;53.516;49.456;2023-04-03T01:50:31;3.55;66.59
67555;HTU21D;54385;53.516;49.456;2023-04-03T01:52:58;3.46;66.55
67555;HTU21D;54385;53.516;49.456;2023-04-03T01:55:24;3.39;66.84
67555;HTU21D;54385;53.516;49.456;2023-04-03T01:57:51;3.36;66.78
67555;HTU21D;54385;53.516;49.456;2023-04-03T02:00:17;3.33;66.84
67555;HTU21D;54385;53.516;49.456;2023-04-03T02:02:44;3.36;66.83
67555;HTU21D;54385;53.516;49.456;2023-04-03T02:05:11;3.39;66.85
67555;HTU21D;54385;53.516;49.456;2023-04-03T02:07:38;3.38;67.07
67555;HTU21D;54385;53.516;49.456;2023-04-03T02:10:05;3.35;67.33
67555;HTU21D;54385;53.516;49.456;2023-04-03T02:12:31;3.34;67.14
67555;HTU21D;54385;53.516;49.456;2023-04-03T02:14:58;3.35;67.02
67555;HTU21D;54385;53.516;49.456;2023-04-03T02:17:25;3.36;66.99
67555;HTU21D;54385;53.516;49.456;2023-04-03T02:19:51;3.30;67.14
67555;HTU21D;54385;53.516;49.456;2023-04-03T02:22:18;3.30;67.29
67555;HTU21D;54385;53.516;49.456;2023-04-03T02:24:45;3.32;67.33
67555;HTU21D;54385;53.516;49.456;2023-04-03T02:27:12;3.35;67.23
67555;HTU21D;54385;53.516;49.456;2023-04-03T02:29:38;3.41;66.73
67555;HTU21D;54385;53.516;49.456;2023-04-03T02:32:05;3.39;67.20
67555;HTU21D;54385;53.516;49.456;2023-04-03T02:34:32;3.41;67.06
67555;HTU21D;54385;53.516;49.456;2023-04-03T02:36:59;3.45;67.08
67555;HTU21D;54385;53.516;49.456;2023-04-03T02:39:26;3.49;66.77
67555;HTU21D;54385;53.516;49.456;2023-04-03T02:41:53;3.54;66.84
67555;HTU21D;54385;53.516;49.456;2023-04-03T02:44:19;3.60;66.49
67555;HTU21D;54385;53.516;49.456;2023-04-03T02:46:46;3.68;66.37
67555;HTU21D;54385;53.516;49.456;2023-04-03T02:49:13;3.71;66.27
67555;HTU21D;54385;53.516;49.456;2023-04-03T02:51:40;3.77;66.20
67555;HTU21D;54385;53.516;49.456;2023-04-03T02:54:06;3.87;65.68
67555;HTU21D;54385;53.516;49.456;2023-04-03T02:56:33;3.98;65.66
67555;HTU21D;54385;53.516;49.456;2023-04-03T02:59:03;3.98;65.66
67555;HTU21D;54385;53.516;49.456;2023-04-03T03:01:30;3.98;65.57
67555;HTU21D;54385;53.516;49.456;2023-04-03T03:03:59;4.07;65.40
67555;HTU21D;54385;53.516;49.456;2023-04-03T03:06:26;4.20;65.15
67555;HTU21D;54385;53.516;49.456;2023-04-03T03:08:53;4.32;64.78
67555;HTU21D;54385;53.516;49.456;2023-04-03T03:11:20;4.43;64.39
67555;HTU21D;54385;53.516;49.456;2023-04-03T03:13:47;4.57;63.86
67555;HTU21D;54385;53.516;49.456;2023-04-03T03:16:14;4.68;63.33
67555;HTU21D;54385;53.516;49.456;2023-04-03T03:18:41;4.79;62.60
67555;HTU21D;54385;53.516;49.456;2023-04-03T03:21:09;4.88;62.28
67555;HTU21D;54385;53.516;49.456;2023-04-03T03:23:37;5.03;62.00
67555;HTU21D;54385;53.516;49.456;2023-04-03T03:26:06;5.17;61.67
67555;HTU21D;54385;53.516;49.456;2023-04-03T03:28:34;5.27;61.17
67555;HTU21D;54385;53.516;49.456;2023-04-03T03:31:02;5.37;60.63
67555;HTU21D;54385;53.516;49.456;2023-04-03T03:33:29;5.46;60.25
67555;HTU21D;54385;53.516;49.456;2023-04-03T03:35:56;5.55;59.94
67555;HTU21D;54385;53.516;49.456;2023-04-03T03:38:24;5.65;59.48
67555;HTU21D;54385;53.516;49.456;2023-04-03T03:40:51;5.76;59.08
67555;HTU21D;54385;53.516;49.456;2023-04-03T03:43:18;5.89;58.61
67555;HTU21D;54385;53.516;49.456;2023-04-03T03:45:50;6.01;58.44
67555;HTU21D;54385;53.516;49.456;2023-04-03T03:48:19;6.13;57.84
67555;HTU21D;54385;53.516;49.456;2023-04-03T03:50:47;6.24;57.55
67555;HTU21D;54385;53.516;49.456;2023-04-03T03:53:14;6.35;56.80
67555;HTU21D;54385;53.516;49.456;2023-04-03T03:55:43;6.44;56.55
67555;HTU21D;54385;53.516;49.456;2023-04-03T03:58:12;6.55;56.31
67555;HTU21D;54385;53.516;49.456;2023-04-03T04:00:39;6.66;56.29
67555;HTU21D;54385;53.516;49.456;2023-04-03T04:03:05;6.78;55.95
67555;HTU21D;54385;53.516;49.456;2023-04-03T04:05:32;6.87;55.34
67555;HTU21D;54385;53.516;49.456;2023-04-03T04:08:00;6.95;55.36
67555;HTU21D;54385;53.516;49.456;2023-04-03T04:10:26;7.02;54.92
67555;HTU21D;54385;53.516;49.456;2023-04-03T04:12:54;7.13;54.68
67555;HTU21D;54385;53.516;49.456;2023-04-03T04:15:21;7.22;54.20
67555;HTU21D;54385;53.516;49.456;2023-04-03T04:17:49;7.28;54.07
67555;HTU21D;54385;53.516;49.456;2023-04-03T04:20:17;7.41;53.88
67555;HTU21D;54385;53.516;49.456;2023-04-03T04:22:44;7.52;53.60
67555;HTU21D;54385;53.516;49.456;2023-04-03T04:25:11;7.63;53.04
67555;HTU21D;54385;53.516;49.456;2023-04-03T04:27:42;7.76;52.86
67555;HTU21D;54385;53.516;49.456;2023-04-03T04:30:09;7.87;52.56
67555;HTU21D;54385;53.516;49.456;2023-04-03T04:32:37;7.92;51.43
67555;HTU21D;54385;53.516;49.456;2023-04-03T04:35:04;8.01;51.56
67555;HTU21D;54385;53.516;49.456;2023-04-03T04:37:32;8.15;51.26
67555;HTU21D;54385;53.516;49.456;2023-04-03T04:39:59;8.26;51.03
67555;HTU21D;54385;53.516;49.456;2023-04-03T04:42:29;8.33;50.11
67555;HTU21D;54385;53.516;49.456;2023-04-03T04:44:56;8.45;50.18
67555;HTU21D;54385;53.516;49.456;2023-04-03T04:47:23;8.55;49.21
67555;HTU21D;54385;53.516;49.456;2023-04-03T04:49:50;8.61;49.10
67555;HTU21D;54385;53.516;49.456;2023-04-03T04:52:17;8.72;49.18
67555;HTU21D;54385;53.516;49.456;2023-04-03T04:54:44;8.78;48.63
67555;HTU21D;54385;53.516;49.456;2023-04-03T04:57:11;8.90;48.50
67555;HTU21D;54385;53.516;49.456;2023-04-03T04:59:40;8.97;47.52
67555;HTU21D;54385;53.516;49.456;2023-04-03T05:02:07;9.05;47.38
67555;HTU21D;54385;53.516;49.456;2023-04-03T05:04:33;9.16;47.45
67555;HTU21D;54385;53.516;49.456;2023-04-03T05:07:00;9.25;47.10
67555;HTU21D;54385;53.516;49.456;2023-04-03T05:09:26;9.38;46.68
67555;HTU21D;54385;53.516;49.456;2023-04-03T05:11:53;9.48;46.53
67555;HTU21D;54385;53.516;49.456;2023-04-03T05:14:20;9.54;46.57
67555;HTU21D;54385;53.516;49.456;2023-04-03T05:16:46;9.64;46.67
67555;HTU21D;54385;53.516;49.456;2023-04-03T05:19:13;9.63;45.74
67555;HTU21D;54385;53.516;49.456;2023-04-03T05:21:40;9.63;45.58
67555;HTU21D;54385;53.516;49.456;2023-04-03T05:24:09;9.75;45.04
67555;HTU21D;54385;53.516;49.456;2023-04-03T05:26:39;9.89;44.91
67555;HTU21D;54385;53.516;49.456;2023-04-03T05:29:09;10.06;45.16
67555;HTU21D;54385;53.516;49.456;2023-04-03T05:31:36;10.23;45.06
67555;HTU21D;54385;53.516;49.456;2023-04-03T05:34:02;10.29;44.31
67555;HTU21D;54385;53.516;49.456;2023-04-03T05:36:29;10.35;44.68
67555;HTU21D;54385;53.516;49.456;2023-04-03T05:38:56;10.52;44.45
67555;HTU21D;54385;53.516;49.456;2023-04-03T05:41:23;10.65;43.96
67555;HTU21D;54385;53.516;49.456;2023-04-03T05:43:49;10.72;43.01
67555;HTU21D;54385;53.516;49.456;2023-04-03T05:46:18;10.82;42.62
67555;HTU21D;54385;53.516;49.456;2023-04-03T05:48:46;10.96;43.12
67555;HTU21D;54385;53.516;49.456;2023-04-03T05:51:22;11.04;42.54
67555;HTU21D;54385;53.516;49.456;2023-04-03T05:54:20;11.13;41.65
67555;HTU21D;54385;53.516;49.456;2023-04-03T05:56:50;11.25;42.26
67555;HTU21D;54385;53.516;49.456;2023-04-03T05:59:18;11.34;41.40
67555;HTU21D;54385;53.516;49.456;2023-04-03T06:01:48;11.32;41.61
67555;HTU21D;54385;53.516;49.456;2023-04-03T06:04:15;11.44;40.57
67555;HTU21D;54385;53.516;49.456;2023-04-03T06:06:47;11.38;40.33
67555;HTU21D;54385;53.516;49.456;2023-04-03T06:09:15;11.34;40.49
67555;HTU21D;54385;53.516;49.456;2023-04-03T06:11:42;11.33;40.23
67555;HTU21D;54385;53.516;49.456;2023-04-03T06:14:09;11.47;40.46
67555;HTU21D;54385;53.516;49.456;2023-04-03T06:16:36;11.63;40.09
67555;HTU21D;54385;53.516;49.456;2023-04-03T06:19:04;11.83;39.79
67555;HTU21D;54385;53.516;49.456;2023-04-03T06:21:32;12.02;39.37
67555;HTU21D;54385;53.516;49.456;2023-04-03T06:24:04;12.21;38.49
67555;HTU21D;54385;53.516;49.456;2023-04-03T06:26:31;12.27;38.47
67555;HTU21D;54385;53.516;49.456;2023-04-03T06:28:57;12.46;37.88
67555;HTU21D;54385;53.516;49.456;2023-04-03T06:31:24;12.61;37.79
67555;HTU21D;54385;53.516;49.456;2023-04-03T06:33:50;12.75;37.47
67555;HTU21D;54385;53.516;49.456;2023-04-03T06:36:19;12.95;36.59
67555;HTU21D;54385;53.516;49.456;2023-04-03T06:38:47;13.09;35.44
67555;HTU21D;54385;53.516;49.456;2023-04-03T06:41:14;13.19;35.50
67555;HTU21D;54385;53.516;49.456;2023-04-03T06:43:45;13.19;35.41
67555;HTU21D;54385;53.516;49.456;2023-04-03T06:46:20;13.36;34.52
67555;HTU21D;54385;53.516;49.456;2023-04-03T06:48:48;13.48;33.99
67555;HTU21D;54385;53.516;49.456;2023-04-03T06:51:20;13.56;32.91
67555;HTU21D;54385;53.516;49.456;2023-04-03T06:53:47;13.67;33.37
67555;HTU21D;54385;53.516;49.456;2023-04-03T06:56:15;13.82;32.57
67555;HTU21D;54385;53.516;49.456;2023-04-03T06:58:43;13.86;32.96
67555;HTU21D;54385;53.516;49.456;2023-04-03T07:01:11;13.82;31.80
67555;HTU21D;54385;53.516;49.456;2023-04-03T07:03:38;13.99;32.86
67555;HTU21D;54385;53.516;49.456;2023-04-03T07:06:06;14.20;31.11
67555;HTU21D;54385;53.516;49.456;2023-04-03T07:08:49;14.37;30.98
67555;HTU21D;54385;53.516;49.456;2023-04-03T07:11:25;14.48;30.69
67555;HTU21D;54385;53.516;49.456;2023-04-03T07:13:53;14.62;29.12
67555;HTU21D;54385;53.516;49.456;2023-04-03T07:16:20;14.62;29.63
67555;HTU21D;54385;53.516;49.456;2023-04-03T07:18:46;14.65;28.93
67555;HTU21D;54385;53.516;49.456;2023-04-03T07:21:13;14.77;29.13
67555;HTU21D;54385;53.516;49.456;2023-04-03T07:23:40;14.98;29.27
67555;HTU21D;54385;53.516;49.456;2023-04-03T07:26:06;15.17;27.49
67555;HTU21D;54385;53.516;49.456;2023-04-03T07:28:34;15.37;27.03
67555;HTU21D;54385;53.516;49.456;2023-04-03T07:31:03;15.39;26.24
67555;HTU21D;54385;53.516;49.456;2023-04-03T07:33:34;15.37;26.42
67555;HTU21D;54385;53.516;49.456;2023-04-03T07:36:01;15.54;27.13
67555;HTU21D;54385;53.516;49.456;2023-04-03T07:38:28;15.44;25.52
67555;HTU21D;54385;53.516;49.456;2023-04-03T07:40:55;15.51;26.54
67555;HTU21D;54385;53.516;49.456;2023-04-03T07:43:22;15.51;25.43
67555;HTU21D;54385;53.516;49.456;2023-04-03T07:45:51;15.49;26.08
67555;HTU21D;54385;53.516;49.456;2023-04-03T07:48:22;15.61;25.50
67555;HTU21D;54385;53.516;49.456;2023-04-03T07:50:50;15.71;25.62
67555;HTU21D;54385;53.516;49.456;2023-04-03T07:53:18;15.83;25.82
67555;HTU21D;54385;53.516;49.456;2023-04-03T07:55:48;15.90;24.72
67555;HTU21D;54385;53.516;49.456;2023-04-03T07:58:18;15.97;23.49
67555;HTU21D;54385;53.516;49.456;2023-04-03T08:00:45;16.08;24.19
67555;HTU21D;54385;53.516;49.456;2023-04-03T08:03:13;16.24;24.00
67555;HTU21D;54385;53.516;49.456;2023-04-03T08:05:46;16.35;22.22
67555;HTU21D;54385;53.516;49.456;2023-04-03T08:08:16;16.26;21.85
67555;HTU21D;54385;53.516;49.456;2023-04-03T08:10:53;16.25;20.48
67555;HTU21D;54385;53.516;49.456;2023-04-03T08:13:20;16.33;22.41
67555;HTU21D;54385;53.516;49.456;2023-04-03T08:15:50;16.32;21.86
67555;HTU21D;54385;53.516;49.456;2023-04-03T08:18:17;16.34;20.99
67555;HTU21D;54385;53.516;49.456;2023-04-03T08:20:47;16.34;21.23
67555;HTU21D;54385;53.516;49.456;2023-04-03T08:23:14;16.48;22.16
67555;HTU21D;54385;53.516;49.456;2023-04-03T08:25:42;16.71;21.14
67555;HTU21D;54385;53.516;49.456;2023-04-03T08:28:10;16.85;21.85
67555;HTU21D;54385;53.516;49.456;2023-04-03T08:30:41;16.95;21.32
67555;HTU21D;54385;53.516;49.456;2023-04-03T08:33:09;17.04;21.72
67555;HTU21D;54385;53.516;49.456;2023-04-03T08:35:40;17.16;21.34
67555;HTU21D;54385;53.516;49.456;2023-04-03T08:38:09;17.19;21.52
67555;HTU21D;54385;53.516;49.456;2023-04-03T08:40:37;17.01;20.08
67555;HTU21D;54385;53.516;49.456;2023-04-03T08:46:10;17.28;20.21
67555;HTU21D;54385;53.516;49.456;2023-04-03T08:48:40;17.25;19.70
67555;HTU21D;54385;53.516;49.456;2023-04-03T08:51:19;17.34;18.96
67555;HTU21D;54385;53.516;49.456;2023-04-03T08:54:37;17.19;18.83
67555;HTU21D;54385;53.516;49.456;2023-04-03T08:56:50;17.13;19.29
67555;HTU21D;54385;53.516;49.456;2023-04-03T08:59:24;17.29;19.73
67555;HTU21D;54385;53.516;49.456;2023-04-03T09:01:54;17.46;20.12
67555;HTU21D;54385;53.516;49.456;2023-04-03T09:04:21;17.62;19.66
67555;HTU21D;54385;53.516;49.456;2023-04-03T09:06:59;17.61;18.88
67555;HTU21D;54385;53.516;49.456;2023-04-03T09:09:40;17.59;19.48
67555;HTU21D;54385;53.516;49.456;2023-04-03T09:12:27;17.55;18.77
67555;HTU21D;54385;53.516;49.456;2023-04-03T09:15:22;17.64;18.11
67555;HTU21D;54385;53.516;49.456;2023-04-03T09:18:06;17.84;19.36
67555;HTU21D;54385;53.516;49.456;2023-04-03T09:23:42;17.88;17.83
67555;HTU21D;54385;53.516;49.456;2023-04-03T09:26:17;18.08;19.22
67555;HTU21D;54385;53.516;49.456;2023-04-03T09:28:46;18.28;19.34
67555;HTU21D;54385;53.516;49.456;2023-04-03T09:31:22;18.29;17.70
67555;HTU21D;54385;53.516;49.456;2023-04-03T09:33:58;18.21;18.28
67555;HTU21D;54385;53.516;49.456;2023-04-03T09:36:52;18.13;17.76
67555;HTU21D;54385;53.516;49.456;2023-04-03T09:39:21;18.17;18.25
67555;HTU21D;54385;53.516;49.456;2023-04-03T09:42:21;17.97;17.51
67555;HTU21D;54385;53.516;49.456;2023-04-03T09:45:00;18.22;16.81
67555;HTU21D;54385;53.516;49.456;2023-04-03T09:47:35;17.90;16.14
67555;HTU21D;54385;53.516;49.456;2023-04-03T09:52:51;17.84;16.18
67555;HTU21D;54385;53.516;49.456;2023-04-03T09:57:48;18.08;16.81
67555;HTU21D;54385;53.516;49.456;2023-04-03T10:00:35;18.53;16.71
67555;HTU21D;54385;53.516;49.456;2023-04-03T10:03:02;18.78;16.72
67555;HTU21D;54385;53.516;49.456;2023-04-03T10:05:37;18.70;15.61
67555;HTU21D;54385;53.516;49.456;2023-04-03T10:08:09;19.15;15.29
67555;HTU21D;54385;53.516;49.456;2023-04-03T10:10:37;19.66;15.64
67555;HTU21D;54385;53.516;49.456;2023-04-03T10:13:17;19.88;14.23
67555;HTU21D;54385;53.516;49.456;2023-04-03T10:16:13;19.39;13.47
67555;HTU21D;54385;53.516;49.456;2023-04-03T10:21:52;19.61;13.13
67555;HTU21D;54385;53.516;49.456;2023-04-03T10:30:04;19.65;14.74
67555;HTU21D;54385;53.516;49.456;2023-04-03T10:36:02;20.89;13.96
67555;HTU21D;54385;53.516;49.456;2023-04-03T10:41:23;21.63;13.82
67555;HTU21D;54385;53.516;49.456;2023-04-03T10:44:05;22.23;12.97
67555;HTU21D;54385;53.516;49.456;2023-04-03T10:46:49;22.51;12.36
67555;HTU21D;54385;53.516;49.456;2023-04-03T10:52:06;21.52;13.61
67555;HTU21D;54385;53.516;49.456;2023-04-03T10:54:40;21.47;14.08
67555;HTU21D;54385;53.516;49.456;2023-04-03T10:57:11;21.87;14.13
67555;HTU21D;54385;53.516;49.456;2023-04-03T10:59:50;21.62;13.57
67555;HTU21D;54385;53.516;49.456;2023-04-03T11:03:03;21.08;14.42
67555;HTU21D;54385;53.516;49.456;2023-04-03T11:05:39;21.11;15.10
67555;HTU21D;54385;53.516;49.456;2023-04-03T11:08:32;21.17;15.35
67555;HTU21D;54385;53.516;49.456;2023-04-03T11:11:07;21.44;15.62
67555;HTU21D;54385;53.516;49.456;2023-04-03T11:13:39;21.60;15.27
67555;HTU21D;54385;53.516;49.456;2023-04-03T11:16:07;20.93;15.36
67555;HTU21D;54385;53.516;49.456;2023-04-03T11:18:49;20.74;15.27
67555;HTU21D;54385;53.516;49.456;2023-04-03T11:21:21;20.57;16.51
67555;HTU21D;54385;53.516;49.456;2023-04-03T11:23:51;21.27;15.58
67555;HTU21D;54385;53.516;49.456;2023-04-03T11:26:21;21.31;15.88
67555;HTU21D;54385;53.516;49.456;2023-04-03T11:29:01;22.03;15.08
67555;HTU21D;54385;53.516;49.456;2023-04-03T11:34:34;22.58;14.74
67555;HTU21D;54385;53.516;49.456;2023-04-03T11:37:21;23.07;14.63
67555;HTU21D;54385;53.516;49.456;2023-04-03T11:40:28;23.24;13.91
67555;HTU21D;54385;53.516;49.456;2023-04-03T11:42:55;23.31;14.28
67555;HTU21D;54385;53.516;49.456;2023-04-03T11:51:38;22.90;14.39
67555;HTU21D;54385;53.516;49.456;2023-04-03T11:54:43;23.31;14.47
67555;HTU21D;54385;53.516;49.456;2023-04-03T11:58:31;23.20;14.65
67555;HTU21D;54385;53.516;49.456;2023-04-03T12:08:52;24.48;13.47
67555;HTU21D;54385;53.516;49.456;2023-04-03T12:11:30;24.76;13.33
67555;HTU21D;54385;53.516;49.456;2023-04-03T12:38:17;24.87;12.88
67555;HTU21D;54385;53.516;49.456;2023-04-03T12:46:48;24.26;12.94
67555;HTU21D;54385;53.516;49.456;2023-04-03T12:49:39;24.51;13.20
67555;HTU21D;54385;53.516;49.456;2023-04-03T12:54:56;25.21;12.43
67555;HTU21D;54385;53.516;49.456;2023-04-03T12:57:28;25.64;11.99
67555;HTU21D;54385;53.516;49.456;2023-04-03T12:59:58;25.98;11.88
67555;HTU21D;54385;53.516;49.456;2023-04-03T13:02:31;25.91;12.08
67555;HTU21D;54385;53.516;49.456;2023-04-03T13:05:09;25.56;11.74
67555;HTU21D;54385;53.516;49.456;2023-04-03T13:07:37;25.19;12.16
67555;HTU21D;54385;53.516;49.456;2023-04-03T13:12:34;24.10;13.00
67555;HTU21D;54385;53.516;49.456;2023-04-03T13:15:12;23.09;13.86
67555;HTU21D;54385;53.516;49.456;2023-04-03T13:17:41;22.22;14.74
67555;HTU21D;54385;53.516;49.456;2023-04-03T13:20:21;21.80;15.50
67555;HTU21D;54385;53.516;49.456;2023-04-03T13:23:04;22.04;15.38
67555;HTU21D;54385;53.516;49.456;2023-04-03T13:25:37;22.20;15.32
67555;HTU21D;54385;53.516;49.456;2023-04-03T13:28:09;21.87;15.26
67555;HTU21D;54385;53.516;49.456;2023-04-03T13:30:39;21.66;15.81
67555;HTU21D;54385;53.516;49.456;2023-04-03T13:33:25;21.59;16.27
67555;HTU21D;54385;53.516;49.456;2023-04-03T13:36:04;21.42;15.87
67555;HTU21D;54385;53.516;49.456;2023-04-03T13:38:32;20.79;16.71
67555;HTU21D;54385;53.516;49.456;2023-04-03T13:41:03;20.91;16.47
67555;HTU21D;54385;53.516;49.456;2023-04-03T13:43:35;21.22;16.54
67555;HTU21D;54385;53.516;49.456;2023-04-03T13:48:41;20.96;16.33
67555;HTU21D;54385;53.516;49.456;2023-04-03T13:56:25;20.98;16.36
67555;HTU21D;54385;53.516;49.456;2023-04-03T14:04:21;21.00;16.54
67555;HTU21D;54385;53.516;49.456;2023-04-03T14:06:49;20.63;16.41
67555;HTU21D;54385;53.516;49.456;2023-04-03T14:09:17;20.34;16.83
67555;HTU21D;54385;53.516;49.456;2023-04-03T14:11:44;20.45;16.87
67555;HTU21D;54385;53.516;49.456;2023-04-03T14:14:20;20.47;16.87
67555;HTU21D;54385;53.516;49.456;2023-04-03T14:16:52;20.45;17.24
67555;HTU21D;54385;53.516;49.456;2023-04-03T14:19:31;20.50;17.45
67555;HTU21D;54385;53.516;49.456;2023-04-03T14:21:58;20.55;17.45
67555;HTU21D;54385;53.516;49.456;2023-04-03T14:24:26;20.47;17.39
67555;HTU21D;54385;53.516;49.456;2023-04-03T14:26:54;20.24;17.86
67555;HTU21D;54385;53.516;49.456;2023-04-03T14:29:21;20.22;17.86
67555;HTU21D;54385;53.516;49.456;2023-04-03T14:31:49;20.18;18.09
67555;HTU21D;54385;53.516;49.456;2023-04-03T14:34:16;20.20;18.22
67555;HTU21D;54385;53.516;49.456;2023-04-03T14:36:44;20.26;18.14
67555;HTU21D;54385;53.516;49.456;2023-04-03T14:39:17;20.05;18.38
67555;HTU21D;54385;53.516;49.456;2023-04-03T14:41:44;19.89;18.87
67555;HTU21D;54385;53.516;49.456;2023-04-03T14:44:11;19.67;19.31
67555;HTU21D;54385;53.516;49.456;2023-04-03T14:46:41;19.50;19.53
67555;HTU21D;54385;53.516;49.456;2023-04-03T14:49:21;19.16;19.66
67555;HTU21D;54385;53.516;49.456;2023-04-03T14:51:50;18.83;20.43
67555;HTU21D;54385;53.516;49.456;2023-04-03T14:54:19;18.68;20.28
67555;HTU21D;54385;53.516;49.456;2023-04-03T14:56:47;18.49;20.91
67555;HTU21D;54385;53.516;49.456;2023-04-03T14:59:14;18.29;21.11
67555;HTU21D;54385;53.516;49.456;2023-04-03T15:01:43;18.11;21.34
67555;HTU21D;54385;53.516;49.456;2023-04-03T15:04:15;18.05;21.85
67555;HTU21D;54385;53.516;49.456;2023-04-03T15:06:42;17.90;22.07
67555;HTU21D;54385;53.516;49.456;2023-04-03T15:11:42;17.46;22.67
67555;HTU21D;54385;53.516;49.456;2023-04-03T15:14:09;17.33;22.59
67555;HTU21D;54385;53.516;49.456;2023-04-03T15:16:36;17.06;23.30
67555;HTU21D;54385;53.516;49.456;2023-04-03T15:19:03;16.85;23.63
67555;HTU21D;54385;53.516;49.456;2023-04-03T15:21:29;16.52;24.34
67555;HTU21D;54385;53.516;49.456;2023-04-03T15:23:56;16.37;24.96
67555;HTU21D;54385;53.516;49.456;2023-04-03T15:26:22;16.24;25.27
67555;HTU21D;54385;53.516;49.456;2023-04-03T15:28:49;16.07;25.44
67555;HTU21D;54385;53.516;49.456;2023-04-03T15:31:15;15.89;25.56
67555;HTU21D;54385;53.516;49.456;2023-04-03T15:33:42;15.69;26.41
67555;HTU21D;54385;53.516;49.456;2023-04-03T15:36:10;15.51;26.75
67555;HTU21D;54385;53.516;49.456;2023-04-03T15:38:36;15.40;26.94
67555;HTU21D;54385;53.516;49.456;2023-04-03T15:41:04;15.30;26.86
67555;HTU21D;54385;53.516;49.456;2023-04-03T15:43:31;15.21;26.75
67555;HTU21D;54385;53.516;49.456;2023-04-03T15:45:59;15.09;26.97
67555;HTU21D;54385;53.516;49.456;2023-04-03T15:48:27;14.97;26.93
67555;HTU21D;54385;53.516;49.456;2023-04-03T15:50:55;14.83;27.18
67555;HTU21D;54385;53.516;49.456;2023-04-03T15:53:22;14.73;27.50
67555;HTU21D;54385;53.516;49.456;2023-04-03T15:55:49;14.65;27.06
67555;HTU21D;54385;53.516;49.456;2023-04-03T15:58:15;14.59;27.64
67555;HTU21D;54385;53.516;49.456;2023-04-03T16:00:43;14.51;27.91
67555;HTU21D;54385;53.516;49.456;2023-04-03T16:03:12;14.42;28.59
67555;HTU21D;54385;53.516;49.456;2023-04-03T16:05:42;14.35;28.43
67555;HTU21D;54385;53.516;49.456;2023-04-03T16:08:09;14.26;28.55
67555;HTU21D;54385;53.516;49.456;2023-04-03T16:10:37;14.21;28.76
67555;HTU21D;54385;53.516;49.456;2023-04-03T16:13:07;14.11;29.16
67555;HTU21D;54385;53.516;49.456;2023-04-03T16:15:35;14.04;29.37
67555;HTU21D;54385;53.516;49.456;2023-04-03T16:18:03;13.95;29.74
67555;HTU21D;54385;53.516;49.456;2023-04-03T16:20:31;13.88;30.19
67555;HTU21D;54385;53.516;49.456;2023-04-03T16:22:59;13.82;30.65
67555;HTU21D;54385;53.516;49.456;2023-04-03T16:25:29;13.73;31.04
67555;HTU21D;54385;53.516;49.456;2023-04-03T16:28:03;13.63;31.50
67555;HTU21D;54385;53.516;49.456;2023-04-03T16:30:30;13.59;31.46
67555;HTU21D;54385;53.516;49.456;2023-04-03T16:32:57;13.49;31.87
67555;HTU21D;54385;53.516;49.456;2023-04-03T16:35:23;13.38;32.24
67555;HTU21D;54385;53.516;49.456;2023-04-03T16:37:53;13.26;31.86
67555;HTU21D;54385;53.516;49.456;2023-04-03T16:40:20;13.16;31.73
67555;HTU21D;54385;53.516;49.456;2023-04-03T16:42:47;13.06;32.73
67555;HTU21D;54385;53.516;49.456;2023-04-03T16:45:14;12.96;33.17
67555;HTU21D;54385;53.516;49.456;2023-04-03T16:47:41;12.87;33.21
67555;HTU21D;54385;53.516;49.456;2023-04-03T16:50:08;12.84;33.46
67555;HTU21D;54385;53.516;49.456;2023-04-03T16:52:38;12.70;33.73
67555;HTU21D;54385;53.516;49.456;2023-04-03T16:55:16;12.59;34.75
67555;HTU21D;54385;53.516;49.456;2023-04-03T16:58:06;12.48;35.79
67555;HTU21D;54385;53.516;49.456;2023-04-03T17:00:49;12.36;35.98
67555;HTU21D;54385;53.516;49.456;2023-04-03T17:03:30;12.21;36.51
67555;HTU21D;54385;53.516;49.456;2023-04-03T17:06:05;12.05;37.17
67555;HTU21D;54385;53.516;49.456;2023-04-03T17:08:32;11.89;37.08
67555;HTU21D;54385;53.516;49.456;2023-04-03T17:10:59;11.74;37.06
67555;HTU21D;54385;53.516;49.456;2023-04-03T17:13:30;11.64;37.56
67555;HTU21D;54385;53.516;49.456;2023-04-03T17:16:00;11.51;37.89